Terminal Aerodrome Forecast
Issued by NWS

Home | Current Version | Previous Version | Text Only | Print | Product List | Glossary On
Versions: 1 2 3 4 5 6 7 8 9 10 11 12
000
FTUS43 KGLD 202334
TAFMCK
TAF
KMCK 202334Z 2100/2124 04007KT P6SM FEW070 SCT130
     FM210700 03009KT 6SM BR OVC003
     FM211000 02009KT P6SM OVC008
     FM211200 02010KT P6SM VCSH OVC008
     FM211800 03015G23KT 3SM -DZ OVC008
     FM212100 02018KT 1 1/2SM -FZDZSN BLSN OVC008
     FM212300 01020G28KT 1 1/2SM -SN BLSN OVC003=

USA.gov is the U.S. government's official web portal to all federal, state and local government web resources and services.